createdAt,value
2019-05-01T00:00:28.410Z,99.90
2019-05-01T00:03:35.040Z,99.90
2019-05-01T00:06:04.922Z,99.90
2019-05-01T00:08:34.389Z,99.90
2019-05-01T00:11:03.661Z,99.90
2019-05-01T00:13:32.972Z,99.90
2019-05-01T00:16:02.225Z,99.90
2019-05-01T00:18:31.489Z,99.90
2019-05-01T00:21:00.951Z,99.90
2019-05-01T00:23:30.205Z,99.90
2019-05-01T00:25:59.485Z,99.90
2019-05-01T00:28:28.741Z,99.90
2019-05-01T00:30:57.989Z,99.90
2019-05-01T00:33:27.323Z,99.90
2019-05-01T00:35:56.717Z,99.90
2019-05-01T00:38:26.003Z,99.90
2019-05-01T00:40:55.253Z,99.90
2019-05-01T00:43:24.505Z,99.90
2019-05-01T00:45:53.794Z,99.90
2019-05-01T00:48:23.113Z,99.90
2019-05-01T00:50:52.372Z,99.90
2019-05-01T00:53:21.635Z,99.90
2019-05-01T00:56:08.817Z,99.90
2019-05-01T00:58:54.961Z,99.90
2019-05-01T01:01:43.173Z,99.90
2019-05-01T01:04:14.898Z,99.90
2019-05-01T01:06:44.257Z,99.90
2019-05-01T01:09:13.720Z,99.90
2019-05-01T01:11:43.010Z,99.90
2019-05-01T01:14:12.382Z,99.90
2019-05-01T01:16:41.638Z,99.90
2019-05-01T01:19:10.896Z,99.90
2019-05-01T01:21:40.157Z,99.90
2019-05-01T01:24:09.451Z,99.90
2019-05-01T01:26:38.734Z,99.90
2019-05-01T01:29:08.013Z,99.90
2019-05-01T01:31:37.313Z,99.90
2019-05-01T01:34:06.581Z,99.90
2019-05-01T01:36:35.833Z,99.90
2019-05-01T01:39:06.677Z,99.90
2019-05-01T01:41:36.541Z,99.90
2019-05-01T01:44:22.333Z,99.90
2019-05-01T01:46:52.309Z,99.90
2019-05-01T01:49:21.726Z,99.90
2019-05-01T01:51:51.685Z,99.90
2019-05-01T01:54:21.164Z,99.90
2019-05-01T01:56:50.838Z,99.90
2019-05-01T01:59:21.301Z,99.90
2019-05-01T02:02:08.955Z,99.90
2019-05-01T02:05:03.058Z,99.90
2019-05-01T02:07:32.774Z,99.90
2019-05-01T02:10:02.970Z,99.90
2019-05-01T02:12:32.405Z,99.90
2019-05-01T02:15:01.705Z,99.90
2019-05-01T02:17:30.963Z,99.90
2019-05-01T02:20:00.215Z,99.90
2019-05-01T02:22:29.478Z,99.90
2019-05-01T02:24:58.817Z,99.90
2019-05-01T02:27:43.975Z,99.90
2019-05-01T02:30:15.674Z,99.90
2019-05-01T02:32:47.663Z,99.90
2019-05-01T02:35:17.134Z,99.90
2019-05-01T02:37:48.366Z,99.90
2019-05-01T02:40:55.519Z,99.90
2019-05-01T02:43:28.489Z,99.90
2019-05-01T02:46:00.341Z,99.90
2019-05-01T02:48:32.753Z,99.90
2019-05-01T02:51:04.537Z,99.90
2019-05-01T02:53:37.387Z,99.90
2019-05-01T02:56:33.623Z,99.90
2019-05-01T02:59:05.710Z,99.90
2019-05-01T03:01:46.604Z,99.90
2019-05-01T03:04:09.149Z,99.90
2019-05-01T03:06:39.716Z,99.90
2019-05-01T03:09:08.986Z,99.90
2019-05-01T03:11:41.036Z,99.90
2019-05-01T03:14:17.427Z,99.90
2019-05-01T03:16:48.549Z,99.90
2019-05-01T03:19:37.078Z,99.90
2019-05-01T03:22:12.313Z,99.90
2019-05-01T03:24:41.870Z,99.90
2019-05-01T03:27:11.519Z,99.90
2019-05-01T03:29:41.284Z,99.90
2019-05-01T03:32:18.276Z,99.90
2019-05-01T03:34:42.033Z,99.90
2019-05-01T03:37:11.283Z,99.90
2019-05-01T03:39:41.262Z,99.90
2019-05-01T03:42:10.724Z,99.90
2019-05-01T03:44:39.998Z,99.90
2019-05-01T03:47:09.477Z,99.90
2019-05-01T03:49:38.865Z,99.90
2019-05-01T03:52:08.166Z,99.90
2019-05-01T03:54:37.469Z,99.90
2019-05-01T03:57:06.746Z,99.90
2019-05-01T03:59:36.042Z,99.90
2019-05-01T04:02:32.066Z,99.90
2019-05-01T04:04:48.069Z,99.90
2019-05-01T04:07:17.338Z,99.90
2019-05-01T04:09:46.607Z,99.90
2019-05-01T04:12:15.887Z,99.90
2019-05-01T04:14:45.550Z,99.90
2019-05-01T04:17:21.232Z,99.90
2019-05-01T04:19:50.862Z,99.90
2019-05-01T04:22:20.533Z,99.90
2019-05-01T04:24:50.214Z,99.90
2019-05-01T04:27:30.768Z,99.90
2019-05-01T04:30:28.563Z,99.90
2019-05-01T04:33:00.727Z,99.90
2019-05-01T04:35:47.993Z,99.90
2019-05-01T04:38:17.989Z,99.90
2019-05-01T04:40:47.385Z,99.90
2019-05-01T04:43:16.745Z,99.90
2019-05-01T04:45:46.004Z,99.90
2019-05-01T04:48:15.483Z,99.90
2019-05-01T04:50:44.957Z,99.90
2019-05-01T04:53:14.745Z,99.90
2019-05-01T04:55:44.191Z,99.90
2019-05-01T04:58:13.865Z,99.90
2019-05-01T05:00:43.434Z,99.90
2019-05-01T05:03:16.996Z,99.90
2019-05-01T05:05:46.393Z,99.90
2019-05-01T05:08:16.253Z,99.90
2019-05-01T05:10:46.795Z,99.90
2019-05-01T05:13:35.186Z,99.90
2019-05-01T05:16:22.646Z,99.90
2019-05-01T05:18:51.945Z,99.90
2019-05-01T05:21:21.454Z,99.90
2019-05-01T05:23:51.206Z,99.90
2019-05-01T05:26:20.778Z,99.90
2019-05-01T05:28:51.145Z,99.90
2019-05-01T05:31:22.505Z,99.90
2019-05-01T05:33:53.729Z,99.90
2019-05-01T05:36:25.593Z,99.90
2019-05-01T05:39:15.038Z,99.90
2019-05-01T05:41:45.409Z,99.90
2019-05-01T05:44:14.761Z,99.90
2019-05-01T05:46:44.258Z,99.90
2019-05-01T05:49:13.850Z,99.90
2019-05-01T05:52:02.405Z,99.90
2019-05-01T05:54:56.561Z,99.90
2019-05-01T05:57:39.097Z,99.90
2019-05-01T06:00:30.822Z,99.90
2019-05-01T06:03:31.187Z,99.90
2019-05-01T06:06:07.194Z,99.90
2019-05-01T06:08:39.690Z,99.90
2019-05-01T06:11:22.346Z,99.90
2019-05-01T06:14:16.090Z,99.90
2019-05-01T06:16:54.993Z,99.90
2019-05-01T06:19:45.836Z,99.90
2019-05-01T06:22:31.065Z,99.90
2019-05-01T06:25:21.086Z,99.90
2019-05-01T06:27:40.063Z,99.90
2019-05-01T06:30:11.187Z,99.90
2019-05-01T06:32:41.857Z,99.90
2019-05-01T06:35:11.122Z,99.90
2019-05-01T06:38:05.126Z,99.90
2019-05-01T06:40:43.307Z,99.90
2019-05-01T06:43:43.466Z,99.90
2019-05-01T06:46:29.141Z,99.90
2019-05-01T06:49:07.093Z,99.90
2019-05-01T06:51:42.269Z,99.90
2019-05-01T06:54:16.120Z,99.90
2019-05-01T06:56:45.014Z,99.90
2019-05-01T06:59:14.993Z,99.90
2019-05-01T07:01:45.245Z,99.90
2019-05-01T07:04:14.601Z,99.90
2019-05-01T07:06:44.365Z,99.90
2019-05-01T07:09:27.077Z,99.90
2019-05-01T07:11:47.703Z,99.50
2019-05-01T07:14:17.597Z,99.20
2019-05-01T07:16:47.240Z,99.20
2019-05-01T07:19:17.926Z,99.40
2019-05-01T07:21:47.181Z,99.20
2019-05-01T07:24:16.837Z,99.40
2019-05-01T07:26:48.029Z,99.20
2019-05-01T07:29:19.163Z,98.80
2019-05-01T07:31:48.613Z,97.40
2019-05-01T07:34:21.631Z,96.90
2019-05-01T07:36:50.139Z,95.80
2019-05-01T07:39:20.285Z,95.70
2019-05-01T07:41:49.725Z,96.20
2019-05-01T07:44:29.939Z,95.50
2019-05-01T07:47:04.186Z,96.00
2019-05-01T07:49:58.294Z,95.50
2019-05-01T07:52:29.175Z,95.90
2019-05-01T07:54:59.597Z,95.90
2019-05-01T07:57:29.510Z,95.80
2019-05-01T08:00:03.546Z,95.30
2019-05-01T08:02:31.180Z,94.90
2019-05-01T08:05:04.927Z,94.80
2019-05-01T08:07:32.319Z,94.40
2019-05-01T08:10:03.133Z,93.90
2019-05-01T08:12:32.403Z,84.40
2019-05-01T08:15:01.725Z,62.40
2019-05-01T08:17:33.073Z,46.20
2019-05-01T08:20:15.343Z,37.70
2019-05-01T08:22:45.681Z,33.60
2019-05-01T08:25:14.995Z,29.70
2019-05-01T08:27:50.912Z,27.70
2019-05-01T08:30:34.724Z,25.90
2019-05-01T08:33:14.617Z,25.80
2019-05-01T08:35:42.139Z,25.00
2019-05-01T08:38:11.433Z,23.90
2019-05-01T08:40:40.686Z,23.80
2019-05-01T08:43:13.667Z,22.80
2019-05-01T08:46:02.659Z,22.40
2019-05-01T08:48:40.103Z,22.40
2019-05-01T08:51:09.574Z,24.80
2019-05-01T08:53:38.841Z,25.60
2019-05-01T08:56:09.786Z,24.00
2019-05-01T08:58:39.345Z,23.20
2019-05-01T09:01:10.867Z,22.10
2019-05-01T09:03:39.599Z,21.30
2019-05-01T09:06:08.866Z,21.80
2019-05-01T09:08:38.133Z,21.10
2019-05-01T09:11:07.426Z,21.30
2019-05-01T09:13:36.768Z,20.40
2019-05-01T09:16:06.097Z,20.10
2019-05-01T09:18:35.386Z,20.10
2019-05-01T09:21:04.653Z,19.80
2019-05-01T09:23:34.561Z,19.30
2019-05-01T09:26:15.991Z,19.90
2019-05-01T09:28:50.333Z,20.20
2019-05-01T09:31:21.526Z,20.30
2019-05-01T09:33:50.773Z,20.00
2019-05-01T09:36:20.050Z,19.20
2019-05-01T09:38:50.100Z,19.00
2019-05-01T09:41:19.609Z,19.40
2019-05-01T09:43:48.866Z,19.30
2019-05-01T09:46:18.174Z,19.00
2019-05-01T09:48:47.853Z,18.80
2019-05-01T09:51:26.083Z,18.80
2019-05-01T09:54:09.753Z,18.70
2019-05-01T09:56:39.106Z,18.20
2019-05-01T09:59:12.577Z,18.40
2019-05-01T10:01:39.466Z,18.50
2019-05-01T10:04:08.738Z,18.80
2019-05-01T10:06:38.001Z,19.40
2019-05-01T10:09:12.057Z,19.50
2019-05-01T10:11:40.594Z,19.00
2019-05-01T10:14:10.358Z,18.00
2019-05-01T10:16:39.650Z,17.70
2019-05-01T10:19:08.902Z,17.70
2019-05-01T10:21:38.149Z,18.10
2019-05-01T10:24:07.418Z,17.80
2019-05-01T10:26:38.629Z,17.50
2019-05-01T10:29:36.293Z,18.60
2019-05-01T10:32:23.184Z,19.80
2019-05-01T10:34:57.013Z,20.10
2019-05-01T10:37:28.509Z,20.30
2019-05-01T10:39:57.463Z,22.50
2019-05-01T10:42:26.748Z,23.70
2019-05-01T10:44:56.014Z,24.70
2019-05-01T10:47:25.272Z,25.90
2019-05-01T10:49:54.618Z,26.10
2019-05-01T10:52:23.869Z,26.60
2019-05-01T10:54:53.232Z,27.60
2019-05-01T10:57:22.569Z,28.90
2019-05-01T10:59:51.840Z,30.00
2019-05-01T11:02:21.171Z,31.20
2019-05-01T11:04:50.518Z,31.90
2019-05-01T11:07:20.035Z,31.20
2019-05-01T11:09:49.291Z,31.70
2019-05-01T11:12:18.553Z,31.90
2019-05-01T11:14:47.839Z,32.50
2019-05-01T11:17:17.154Z,33.20
2019-05-01T11:19:46.419Z,33.80
2019-05-01T11:22:15.670Z,34.40
2019-05-01T11:24:44.937Z,34.30
2019-05-01T11:27:14.194Z,34.50
2019-05-01T11:29:43.553Z,35.10
2019-05-01T11:32:38.294Z,35.50
2019-05-01T11:35:38.834Z,36.00
2019-05-01T11:38:19.625Z,38.00
2019-05-01T11:41:01.366Z,38.50
2019-05-01T11:43:30.646Z,36.50
2019-05-01T11:45:59.909Z,37.30
2019-05-01T11:48:30.286Z,38.80
2019-05-01T11:51:00.239Z,39.60
2019-05-01T11:53:29.609Z,40.00
2019-05-01T11:55:58.878Z,39.80
2019-05-01T11:58:28.189Z,40.00
2019-05-01T12:00:59.038Z,40.30
2019-05-01T12:03:28.413Z,41.00
2019-05-01T12:05:57.694Z,42.20
2019-05-01T12:08:26.945Z,41.30
2019-05-01T12:10:56.214Z,41.40
2019-05-01T12:13:25.474Z,41.50
2019-05-01T12:16:01.882Z,41.40
2019-05-01T12:18:31.182Z,41.40
2019-05-01T12:21:00.437Z,41.60
2019-05-01T12:23:29.689Z,41.00
2019-05-01T12:25:58.955Z,41.40
2019-05-01T12:28:28.215Z,41.10
2019-05-01T12:30:57.673Z,40.90
2019-05-01T12:33:26.935Z,40.70
2019-05-01T12:35:57.839Z,40.40
2019-05-01T12:38:27.146Z,39.90
2019-05-01T12:41:14.317Z,39.80
2019-05-01T12:43:43.685Z,40.20
2019-05-01T12:46:31.919Z,40.50
2019-05-01T12:49:01.240Z,41.40
2019-05-01T12:51:30.505Z,41.50
2019-05-01T12:54:14.385Z,42.00
2019-05-01T12:56:50.789Z,42.20
2019-05-01T12:59:20.088Z,42.40
2019-05-01T13:01:49.338Z,42.80
2019-05-01T13:04:18.678Z,42.40
2019-05-01T13:06:49.843Z,41.80
2019-05-01T13:09:19.142Z,41.70
2019-05-01T13:11:48.702Z,41.80
2019-05-01T13:14:17.958Z,42.10
2019-05-01T13:16:47.234Z,42.50
2019-05-01T13:19:16.508Z,42.40
2019-05-01T13:21:45.762Z,41.60
2019-05-01T13:24:15.027Z,40.10
2019-05-01T13:27:06.510Z,40.30
2019-05-01T13:29:40.604Z,40.90
2019-05-01T13:32:35.173Z,41.80
2019-05-01T13:35:04.785Z,41.40
2019-05-01T13:37:34.044Z,42.10
2019-05-01T13:40:03.338Z,41.80
2019-05-01T13:42:32.665Z,42.30
2019-05-01T13:45:01.918Z,41.60
2019-05-01T13:47:31.190Z,41.60
2019-05-01T13:50:00.461Z,40.60
2019-05-01T13:52:29.838Z,40.90
2019-05-01T13:54:59.134Z,41.60
2019-05-01T13:57:28.484Z,42.50
2019-05-01T13:59:57.753Z,42.60
2019-05-01T14:02:27.001Z,42.20
2019-05-01T14:04:56.269Z,42.40
2019-05-01T14:07:25.529Z,42.00
2019-05-01T14:09:54.806Z,42.00
2019-05-01T14:12:24.127Z,42.40
2019-05-01T14:14:53.411Z,42.70
2019-05-01T14:17:22.654Z,43.40
2019-05-01T14:20:00.150Z,43.60
2019-05-01T14:22:52.192Z,43.50
2019-05-01T14:25:21.489Z,44.40
2019-05-01T14:27:50.745Z,45.00
2019-05-01T14:30:19.990Z,45.00
2019-05-01T14:32:51.613Z,44.60
2019-05-01T14:35:20.459Z,44.00
2019-05-01T14:37:49.786Z,44.20
2019-05-01T14:40:19.194Z,44.10
2019-05-01T14:42:48.433Z,44.20
2019-05-01T14:45:18.013Z,44.20
2019-05-01T14:47:47.275Z,43.90
2019-05-01T14:50:16.626Z,44.00
2019-05-01T14:52:45.930Z,44.30
2019-05-01T14:55:15.498Z,44.40
2019-05-01T14:57:44.753Z,44.40
2019-05-01T15:00:15.325Z,44.60
2019-05-01T15:02:44.578Z,44.70
2019-05-01T15:05:13.861Z,44.20
2019-05-01T15:07:44.105Z,44.30
2019-05-01T15:10:13.907Z,44.00
2019-05-01T15:12:44.813Z,44.10
2019-05-01T15:15:45.234Z,44.40
2019-05-01T15:18:42.490Z,44.50
2019-05-01T15:21:11.750Z,44.70
2019-05-01T15:23:53.060Z,44.80
2019-05-01T15:26:12.022Z,45.00
2019-05-01T15:28:41.314Z,45.10
2019-05-01T15:31:10.578Z,45.00
2019-05-01T15:33:39.837Z,44.70
2019-05-01T15:36:09.146Z,44.30
2019-05-01T15:38:38.487Z,44.10
2019-05-01T15:41:15.675Z,44.50
2019-05-01T15:44:06.646Z,44.90
2019-05-01T15:46:37.522Z,45.40
2019-05-01T15:49:06.827Z,45.70
2019-05-01T15:51:36.086Z,45.10
2019-05-01T15:54:05.362Z,44.70
2019-05-01T15:56:34.625Z,44.90
2019-05-01T15:59:04.001Z,45.10
2019-05-01T16:01:33.398Z,45.20
2019-05-01T16:04:02.652Z,45.00
2019-05-01T16:06:31.927Z,44.90
2019-05-01T16:09:01.196Z,44.80
2019-05-01T16:12:01.454Z,45.10
2019-05-01T16:14:31.021Z,44.70
2019-05-01T16:17:00.282Z,45.20
2019-05-01T16:19:29.584Z,44.60
2019-05-01T16:21:58.839Z,44.70
2019-05-01T16:24:28.098Z,44.70
2019-05-01T16:26:57.377Z,45.00
2019-05-01T16:29:26.670Z,45.30
2019-05-01T16:31:55.927Z,45.30
2019-05-01T16:34:25.279Z,45.40
2019-05-01T16:36:54.537Z,45.10
2019-05-01T16:39:52.043Z,45.30
2019-05-01T16:42:25.502Z,45.70
2019-05-01T16:44:54.809Z,46.20
2019-05-01T16:47:24.293Z,46.40
2019-05-01T16:49:53.597Z,46.80
2019-05-01T16:52:25.115Z,47.30
2019-05-01T16:54:59.385Z,47.60
2019-05-01T16:57:25.592Z,47.80
2019-05-01T16:59:55.253Z,48.10
2019-05-01T17:02:46.482Z,48.50
2019-05-01T17:05:46.592Z,48.40
2019-05-01T17:08:36.863Z,48.60
2019-05-01T17:11:08.169Z,48.80
2019-05-01T17:13:37.421Z,48.90
2019-05-01T17:16:06.703Z,48.80
2019-05-01T17:18:35.961Z,48.90
2019-05-01T17:21:05.374Z,49.20
2019-05-01T17:23:34.641Z,49.50
2019-05-01T17:26:03.942Z,49.70
2019-05-01T17:28:33.208Z,49.30
2019-05-01T17:31:02.537Z,49.80
2019-05-01T17:33:31.802Z,49.90
2019-05-01T17:36:01.071Z,50.10
2019-05-01T17:38:30.921Z,50.30
2019-05-01T17:41:00.195Z,50.70
2019-05-01T17:43:29.450Z,51.30
2019-05-01T17:45:58.744Z,51.90
2019-05-01T17:48:28.881Z,52.90
2019-05-01T17:51:00.047Z,53.40
2019-05-01T17:53:29.969Z,53.80
2019-05-01T17:55:59.274Z,54.60
2019-05-01T17:58:28.526Z,56.80
2019-05-01T18:01:27.878Z,57.60
2019-05-01T18:04:14.821Z,57.70
2019-05-01T18:06:47.784Z,58.70
2019-05-01T18:09:17.917Z,61.10
2019-05-01T18:11:52.047Z,62.80
2019-05-01T18:14:18.334Z,64.50
2019-05-01T18:16:47.802Z,68.50
2019-05-01T18:19:17.109Z,74.50
2019-05-01T18:21:51.697Z,85.80
2019-05-01T18:24:41.831Z,92.00
2019-05-01T18:27:39.205Z,92.90
2019-05-01T18:30:11.322Z,94.20
2019-05-01T18:32:47.417Z,95.80
2019-05-01T18:35:16.130Z,97.90
2019-05-01T18:37:53.125Z,99.90
2019-05-01T18:40:29.536Z,99.90
2019-05-01T18:42:58.917Z,99.90
2019-05-01T18:45:55.209Z,99.90
2019-05-01T18:48:25.178Z,99.90
2019-05-01T18:50:56.319Z,99.90
2019-05-01T18:53:25.782Z,99.90
2019-05-01T18:55:55.145Z,99.90
2019-05-01T18:58:24.462Z,99.90
2019-05-01T19:01:03.974Z,99.90
2019-05-01T19:03:37.169Z,99.90
2019-05-01T19:06:04.714Z,99.90
2019-05-01T19:08:34.082Z,99.90
2019-05-01T19:11:12.306Z,99.90
2019-05-01T19:13:34.475Z,99.90
2019-05-01T19:16:08.374Z,99.90
2019-05-01T19:18:35.052Z,99.90
2019-05-01T19:21:04.494Z,99.90
2019-05-01T19:23:33.847Z,99.90
2019-05-01T19:26:06.495Z,99.90
2019-05-01T19:28:34.236Z,99.90
2019-05-01T19:31:03.628Z,99.90
2019-05-01T19:33:32.956Z,99.90
2019-05-01T19:36:07.546Z,99.90
2019-05-01T19:38:34.809Z,99.90
2019-05-01T19:41:08.920Z,99.90
2019-05-01T19:43:35.741Z,99.90
2019-05-01T19:46:06.843Z,99.90
2019-05-01T19:48:36.213Z,99.90
2019-05-01T19:51:05.879Z,99.90
2019-05-01T19:53:35.255Z,99.90
2019-05-01T19:56:04.687Z,99.90
2019-05-01T19:58:33.941Z,99.90
2019-05-01T20:01:05.634Z,99.90
2019-05-01T20:03:37.140Z,99.90
2019-05-01T20:06:08.225Z,99.90
2019-05-01T20:08:37.449Z,99.90
2019-05-01T20:11:09.380Z,99.90
2019-05-01T20:13:37.866Z,99.90
2019-05-01T20:16:08.533Z,99.90
2019-05-01T20:18:37.883Z,99.90
2019-05-01T20:21:07.485Z,99.90
2019-05-01T20:23:36.753Z,99.90
2019-05-01T20:26:06.077Z,99.90
2019-05-01T20:28:37.229Z,99.90
2019-05-01T20:31:06.358Z,99.90
2019-05-01T20:33:38.626Z,99.90
2019-05-01T20:36:06.846Z,99.90
2019-05-01T20:38:36.112Z,99.90
2019-05-01T20:41:05.386Z,99.90
2019-05-01T20:43:38.240Z,99.90
2019-05-01T20:46:07.096Z,99.90
2019-05-01T20:48:36.621Z,99.90
2019-05-01T20:51:05.988Z,99.90
2019-05-01T20:53:35.265Z,99.90
2019-05-01T20:56:22.058Z,99.90
2019-05-01T20:58:51.421Z,99.90
2019-05-01T21:01:24.208Z,99.90
2019-05-01T21:04:00.291Z,99.90
2019-05-01T21:06:31.087Z,99.90
2019-05-01T21:09:13.527Z,99.90
2019-05-01T21:11:47.511Z,99.90
2019-05-01T21:14:22.318Z,99.90
2019-05-01T21:16:46.013Z,99.90
2019-05-01T21:19:15.276Z,99.90
2019-05-01T21:21:44.786Z,99.90
2019-05-01T21:24:14.203Z,99.90
2019-05-01T21:26:43.495Z,99.90
2019-05-01T21:29:14.028Z,99.90
2019-05-01T21:31:44.094Z,99.90
2019-05-01T21:34:14.474Z,99.90
2019-05-01T21:36:47.550Z,99.90
2019-05-01T21:39:17.474Z,99.90
2019-05-01T21:41:46.138Z,99.90
2019-05-01T21:44:15.407Z,99.90
2019-05-01T21:46:44.657Z,99.90
2019-05-01T21:49:13.926Z,99.90
2019-05-01T21:51:46.101Z,99.90
2019-05-01T21:54:16.142Z,99.90
2019-05-01T21:56:45.206Z,99.90
2019-05-01T21:59:15.107Z,99.90
2019-05-01T22:01:44.577Z,99.90
2019-05-01T22:04:14.025Z,99.90
2019-05-01T22:06:46.761Z,99.90
2019-05-01T22:09:18.047Z,99.90
2019-05-01T22:11:47.461Z,99.90
2019-05-01T22:14:25.925Z,99.90
2019-05-01T22:16:56.852Z,99.90
2019-05-01T22:19:26.549Z,99.90
2019-05-01T22:22:15.261Z,99.90
2019-05-01T22:25:03.534Z,99.90
2019-05-01T22:27:42.666Z,99.90
2019-05-01T22:30:20.928Z,99.90
2019-05-01T22:32:52.135Z,99.90
2019-05-01T22:35:33.529Z,99.90
2019-05-01T22:38:03.029Z,99.90
2019-05-01T22:41:04.748Z,99.90
2019-05-01T22:43:23.544Z,99.90
2019-05-01T22:45:56.184Z,99.90
2019-05-01T22:48:23.817Z,99.90
2019-05-01T22:50:56.174Z,99.90
2019-05-01T22:53:25.431Z,99.90
2019-05-01T22:55:57.310Z,99.90
2019-05-01T22:58:25.785Z,99.90
2019-05-01T23:00:56.858Z,99.90
2019-05-01T23:04:00.194Z,99.90
2019-05-01T23:06:29.451Z,99.90
2019-05-01T23:08:58.802Z,99.90
2019-05-01T23:11:30.577Z,99.90
2019-05-01T23:13:59.842Z,99.90
2019-05-01T23:16:33.090Z,99.90
2019-05-01T23:19:02.366Z,99.90
2019-05-01T23:21:31.769Z,99.90
2019-05-01T23:24:01.970Z,99.90
2019-05-01T23:26:31.625Z,99.90
2019-05-01T23:29:00.890Z,99.90
2019-05-01T23:31:30.558Z,99.90
2019-05-01T23:33:59.862Z,99.90
2019-05-01T23:36:29.183Z,99.90
2019-05-01T23:38:58.450Z,99.90
2019-05-01T23:41:44.609Z,99.90
2019-05-01T23:44:03.625Z,99.90
2019-05-01T23:46:29.694Z,99.90
2019-05-01T23:48:58.950Z,99.90
2019-05-01T23:51:29.771Z,99.90
2019-05-01T23:53:59.277Z,99.90
2019-05-01T23:56:31.036Z,99.90
2019-05-01T23:58:59.756Z,99.90
